Time;durP1;ratioP1;P1;durP2;ratioP2;P2;SDS_P1;SDS_P2;PMS_P1;PMS_P2;Temp;Humidity;BMP_temperature;BMP_pressure;BME280_temperature;BME280_humidity;BME280_pressure;Samples;Min_cycle;Max_cycle;Signal;HPM_P1;HPM_P2
2021/12/21 00:00:13;;;;;;;32.13;11.50;;;;;;;4.57;100.00;101834.44;5024987;28;20490;-80
2021/12/21 00:02:43;;;;;;;29.92;11.60;;;;;;;4.50;100.00;101834.03;5022935;28;20061;-78
2021/12/21 00:05:15;;;;;;;15.57;6.93;;;;;;;4.52;100.00;101824.09;5007109;28;20033;-79
2021/12/21 00:07:42;;;;;;;29.33;12.00;;;;;;;4.50;100.00;101828.72;5017511;28;20155;-78
2021/12/21 00:10:09;;;;;;;30.02;11.70;;;;;;;4.52;100.00;101818.78;5022616;28;20037;-80
2021/12/21 00:12:36;;;;;;;34.78;13.13;;;;;;;4.46;100.00;101827.22;5018366;28;20430;-80
2021/12/21 00:15:06;;;;;;;44.92;14.13;;;;;;;4.48;100.00;101825.31;5025774;28;20491;-78
2021/12/21 00:25:18;;;;;;;54.55;21.58;;;;;;;4.63;100.00;101802.00;5022669;28;20056;-81
2021/12/21 00:27:46;;;;;;;44.78;18.95;;;;;;;4.76;100.00;101817.97;4988960;28;20033;-79
2021/12/21 00:30:12;;;;;;;47.08;17.05;;;;;;;4.74;100.00;101809.25;5019401;28;20029;-80
2021/12/21 00:32:38;;;;;;;31.25;12.93;;;;;;;4.78;100.00;101822.22;5005382;28;20044;-79
2021/12/21 00:35:04;;;;;;;35.88;12.48;;;;;;;4.77;100.00;101803.69;5019732;28;20037;-78
2021/12/21 00:37:30;;;;;;;31.98;11.55;;;;;;;4.77;100.00;101799.22;5009725;28;20045;-80
2021/12/21 00:39:55;;;;;;;31.10;11.15;;;;;;;4.72;100.00;101796.03;5020449;28;20072;-81
2021/12/21 00:42:21;;;;;;;30.65;11.05;;;;;;;4.68;100.00;101783.03;5004532;28;20033;-79
2021/12/21 00:44:47;;;;;;;22.50;7.93;;;;;;;4.81;100.00;101808.66;5007960;28;20026;-78
2021/12/21 00:47:15;;;;;;;26.42;10.10;;;;;;;4.74;100.00;101793.28;5008577;28;20044;-82
2021/12/21 00:49:45;;;;;;;33.88;13.10;;;;;;;4.66;100.00;101768.97;5024107;28;20037;-79
2021/12/21 00:52:12;;;;;;;37.30;14.43;;;;;;;4.75;100.00;101800.28;5019991;28;20029;-78
2021/12/21 00:54:39;;;;;;;36.45;14.10;;;;;;;4.67;100.00;101789.34;5017132;28;20041;-79
2021/12/21 00:57:04;;;;;;;27.80;11.45;;;;;;;4.64;100.00;101798.41;5035122;28;20124;-81
2021/12/21 00:59:32;;;;;;;32.65;13.82;;;;;;;4.68;100.00;101796.38;5020996;28;20037;-79
2021/12/21 01:01:57;;;;;;;25.60;10.73;;;;;;;4.65;100.00;101788.59;4983347;28;20041;-79
2021/12/21 01:04:29;;;;;;;34.95;12.43;;;;;;;4.71;100.00;101793.47;5005240;28;20989;-79
2021/12/21 01:07:04;;;;;;;43.17;14.80;;;;;;;4.55;100.00;101767.09;5009911;28;20107;-80
2021/12/21 01:12:15;;;;;;;37.33;13.82;;;;;;;4.66;100.00;101782.28;5021935;28;20029;-80
2021/12/21 01:17:46;;;;;;;44.85;17.17;;;;;;;4.68;100.00;101773.22;5008647;28;20103;-79
2021/12/21 01:20:26;;;;;;;26.52;9.75;;;;;;;4.77;100.00;101772.56;5023671;28;20037;-78
2021/12/21 01:28:27;;;;;;;33.38;12.93;;;;;;;4.74;100.00;101764.81;5011192;28;20053;-79
2021/12/21 01:36:02;;;;;;;51.78;18.35;;;;;;;4.56;100.00;101734.19;5015166;28;20053;-81
2021/12/21 01:41:41;;;;;;;50.08;19.48;;;;;;;4.74;100.00;101750.63;5024206;28;20025;-80
2021/12/21 01:43:50;;;;;;;61.47;21.52;;;;;;;4.78;100.00;101752.09;5001222;28;20049;-80
2021/12/21 01:51:44;;;;;;;65.60;21.02;;;;;;;4.81;100.00;101725.22;5012970;28;20043;-82
2021/12/21 01:54:12;;;;;;;77.20;23.17;;;;;;;4.85;100.00;101735.53;4990211;28;20041;-78
2021/12/21 01:56:38;;;;;;;69.30;24.60;;;;;;;4.84;100.00;101719.66;5021661;28;20103;-79
2021/12/21 01:59:03;;;;;;;96.60;29.40;;;;;;;4.84;100.00;101720.53;5008474;28;20121;-81
2021/12/21 02:01:29;;;;;;;106.68;32.25;;;;;;;4.66;100.00;101691.72;5013718;28;20063;-80
2021/12/21 02:03:55;;;;;;;67.95;22.90;;;;;;;4.75;100.00;101705.22;4990973;28;20392;-79
2021/12/21 02:06:24;;;;;;;72.30;22.88;;;;;;;4.82;100.00;101717.13;5022795;28;20375;-80
2021/12/21 02:08:50;;;;;;;65.95;21.63;;;;;;;4.80;100.00;101704.88;5003898;28;21181;-80
2021/12/21 02:11:16;;;;;;;114.85;31.75;;;;;;;4.81;100.00;101711.91;4989605;28;20046;-79
2021/12/21 02:13:48;;;;;;;38.83;14.07;;;;;;;4.79;100.00;101697.81;5015272;28;20037;-81
2021/12/21 02:16:22;;;;;;;26.00;10.15;;;;;;;4.64;100.00;101667.88;4993685;28;20038;-80
2021/12/21 02:18:56;;;;;;;31.95;11.35;;;;;;;4.79;100.00;101692.50;5008741;28;20101;-79
2021/12/21 02:21:30;;;;;;;41.15;13.98;;;;;;;4.79;100.00;101697.81;5006421;28;20479;-80
2021/12/21 02:24:00;;;;;;;23.35;10.10;;;;;;;4.75;100.00;101689.22;5005895;28;20356;-80
2021/12/21 02:31:37;;;;;;;24.23;11.63;;;;;;;4.76;100.00;101696.28;5020336;28;20034;-81
2021/12/21 02:34:04;;;;;;;20.10;8.00;;;;;;;4.76;100.00;101700.72;5018998;28;20033;-78
2021/12/21 02:36:30;;;;;;;34.63;13.18;;;;;;;4.71;100.00;101701.09;4993626;28;20046;-79
2021/12/21 02:38:56;;;;;;;31.85;12.30;;;;;;;4.57;100.00;101670.13;5008273;28;20064;-79
2021/12/21 02:41:22;;;;;;;24.85;9.77;;;;;;;4.65;100.00;101685.53;5003938;28;20037;-81
2021/12/21 02:43:48;;;;;;;34.17;12.05;;;;;;;4.62;100.00;101680.47;5022743;28;20043;-79
2021/12/21 02:46:14;;;;;;;39.45;14.18;;;;;;;4.71;100.00;101671.78;4996108;28;20118;-79
2021/12/21 02:48:40;;;;;;;34.53;13.32;;;;;;;4.73;100.00;101669.84;5019635;28;20414;-80
2021/12/21 02:51:06;;;;;;;42.83;14.73;;;;;;;4.79;100.00;101669.41;5005280;28;20048;-80
2021/12/21 02:53:32;;;;;;;22.02;9.60;;;;;;;4.81;100.00;101666.59;5019012;28;20025;-78
2021/12/21 02:55:57;;;;;;;40.50;14.25;;;;;;;4.72;100.00;101651.31;5006526;28;20041;-78
2021/12/21 02:58:23;;;;;;;31.25;12.40;;;;;;;4.81;100.00;101654.13;5016312;28;20287;-78
2021/12/21 03:00:52;;;;;;;45.03;14.95;;;;;;;4.85;100.00;101647.59;5020782;28;20033;-81
2021/12/21 03:03:21;;;;;;;33.92;12.30;;;;;;;4.83;100.00;101644.19;5019634;28;20653;-81
2021/12/21 03:05:54;;;;;;;28.15;9.75;;;;;;;4.89;100.00;101653.53;5016992;28;20068;-80
2021/12/21 03:08:33;;;;;;;30.75;14.73;;;;;;;4.81;100.00;101635.47;4990573;28;20059;-79
2021/12/21 03:11:18;;;;;;;29.67;12.30;;;;;;;4.79;100.00;101629.44;5005886;28;20475;-80
2021/12/21 03:16:19;;;;;;;39.85;19.55;;;;;;;4.95;100.00;101617.56;5019577;28;20037;-80
2021/12/21 03:18:56;;;;;;;36.22;14.35;;;;;;;4.65;100.00;101573.66;5028957;28;20044;-79
2021/12/21 03:21:21;;;;;;;23.48;11.95;;;;;;;4.78;100.00;101603.72;5026062;28;20402;-79
2021/12/21 03:23:47;;;;;;;34.40;13.95;;;;;;;4.85;100.00;101615.63;4989106;28;20029;-79
2021/12/21 03:26:12;;;;;;;39.53;13.20;;;;;;;4.81;100.00;101602.66;5008233;28;20036;-79
2021/12/21 03:28:38;;;;;;;29.50;14.00;;;;;;;4.81;100.00;101610.63;5008356;28;20033;-80
2021/12/21 03:31:05;;;;;;;45.45;20.98;;;;;;;4.92;100.00;101605.34;5006497;28;20037;-81
2021/12/21 03:33:30;;;;;;;32.10;15.52;;;;;;;4.89;100.00;101605.56;5023785;28;20037;-80
2021/12/21 03:35:56;;;;;;;27.77;10.13;;;;;;;4.77;100.00;101586.06;5027170;28;20085;-80
2021/12/21 03:38:22;;;;;;;31.60;13.07;;;;;;;4.75;100.00;101590.66;5007406;28;20475;-80
2021/12/21 03:40:47;;;;;;;34.85;12.13;;;;;;;4.87;100.00;101598.66;5036786;28;20044;-80
2021/12/21 03:43:13;;;;;;;42.28;15.40;;;;;;;4.78;100.00;101592.22;5004015;28;20052;-80
2021/12/21 03:45:46;;;;;;;31.40;12.15;;;;;;;4.74;100.00;101574.81;5008234;28;20446;-82
2021/12/21 03:48:14;;;;;;;30.70;12.15;;;;;;;4.89;100.00;101597.56;5025547;28;20443;-79
2021/12/21 03:50:40;;;;;;;27.95;12.80;;;;;;;4.95;100.00;101596.25;4991466;28;20064;-78
2021/12/21 03:53:06;;;;;;;35.85;12.23;;;;;;;4.87;100.00;101588.00;5003234;28;20668;-82
2021/12/21 03:55:32;;;;;;;35.70;13.20;;;;;;;4.84;100.00;101587.28;5021901;28;20475;-79
2021/12/21 03:57:58;;;;;;;40.17;13.77;;;;;;;4.91;100.00;101594.81;5018569;28;20536;-78
2021/12/21 04:00:27;;;;;;;38.25;13.45;;;;;;;5.05;100.00;101602.56;5003281;28;20029;-78
2021/12/21 04:02:52;;;;;;;38.90;19.20;;;;;;;5.12;100.00;101587.81;4991835;28;20445;-80
2021/12/21 04:05:23;;;;;;;35.90;14.98;;;;;;;5.10;100.00;101589.72;5000232;28;21747;-79
2021/12/21 04:07:48;;;;;;;29.88;11.52;;;;;;;5.03;100.00;101594.72;5016286;28;20049;-80
2021/12/21 04:10:14;;;;;;;27.73;10.05;;;;;;;5.03;100.00;101591.19;4985860;28;20455;-78
2021/12/21 04:12:40;;;;;;;24.15;11.55;;;;;;;4.99;100.00;101579.06;5020961;28;20393;-79
2021/12/21 04:15:07;;;;;;;41.38;14.50;;;;;;;5.09;100.00;101596.03;5020397;28;20048;-80
2021/12/21 04:17:33;;;;;;;37.70;12.07;;;;;;;5.11;100.00;101598.56;5016585;28;20034;-79
2021/12/21 04:19:58;;;;;;;39.55;14.75;;;;;;;4.92;100.00;101577.84;5000123;28;20060;-79
2021/12/21 04:22:24;;;;;;;20.52;8.80;;;;;;;5.07;100.00;101598.81;5005754;28;20114;-79
2021/12/21 04:24:50;;;;;;;31.73;11.93;;;;;;;5.03;100.00;101586.72;5000552;28;20399;-80
2021/12/21 04:27:16;;;;;;;30.65;12.45;;;;;;;5.05;100.00;101591.91;5040903;28;20113;-80
2021/12/21 04:29:42;;;;;;;36.85;14.15;;;;;;;5.02;100.00;101590.31;5023851;28;20033;-81
2021/12/21 04:32:08;;;;;;;13.43;6.93;;;;;;;5.02;100.00;101592.16;5021764;28;20030;-79
2021/12/21 04:34:34;;;;;;;26.17;10.85;;;;;;;5.01;100.00;101574.47;5001471;28;20112;-80
2021/12/21 04:37:00;;;;;;;44.15;14.73;;;;;;;4.73;100.00;101531.31;4998524;28;20043;-82
2021/12/21 04:39:35;;;;;;;42.95;16.15;;;;;;;5.03;100.00;101584.03;5021686;28;20045;-78
2021/12/21 04:42:04;;;;;;;41.90;14.50;;;;;;;5.07;100.00;101580.16;5022010;28;20108;-77
2021/12/21 04:44:30;;;;;;;36.30;12.50;;;;;;;5.09;100.00;101574.72;4992498;28;20132;-78
2021/12/21 04:46:56;;;;;;;33.17;16.70;;;;;;;4.97;100.00;101554.34;5009103;28;20037;-78
2021/12/21 04:49:22;;;;;;;24.80;10.80;;;;;;;5.20;100.00;101577.38;5026328;28;20044;-78
2021/12/21 04:51:47;;;;;;;29.45;13.10;;;;;;;5.25;100.00;101580.53;4990508;28;20063;-80
2021/12/21 04:54:13;;;;;;;40.33;20.38;;;;;;;5.18;100.00;101568.66;4992980;28;20025;-81
2021/12/21 04:56:39;;;;;;;24.70;12.25;;;;;;;5.17;100.00;101571.44;5017973;28;20457;-79
2021/12/21 04:59:04;;;;;;;37.05;14.57;;;;;;;5.17;100.00;101571.44;5001897;28;20044;-78
2021/12/21 05:01:30;;;;;;;19.60;9.73;;;;;;;5.22;100.00;101575.44;5006617;28;20048;-79
2021/12/21 05:03:55;;;;;;;37.45;12.23;;;;;;;5.23;100.00;101576.28;5007442;28;20034;-78
2021/12/21 05:06:22;;;;;;;31.90;11.65;;;;;;;5.28;100.00;101577.63;5010555;28;20040;-80
2021/12/21 05:09:03;;;;;;;24.35;10.82;;;;;;;5.22;100.00;101556.78;5010269;28;20021;-79
2021/12/21 05:11:33;;;;;;;32.13;13.63;;;;;;;5.22;100.00;101553.28;5014846;28;20091;-78
2021/12/21 05:13:59;;;;;;;32.50;13.60;;;;;;;5.35;100.00;101561.16;5024136;28;20437;-80
2021/12/21 05:16:25;;;;;;;28.58;12.70;;;;;;;5.30;100.00;101564.19;5007763;28;20034;-77
2021/12/21 05:18:50;;;;;;;37.25;14.75;;;;;;;5.15;100.00;101547.56;4993282;28;20032;-78
2021/12/21 05:21:16;;;;;;;35.95;12.18;;;;;;;5.17;100.00;101576.78;5006996;28;20467;-79
2021/12/21 05:23:44;;;;;;;27.38;10.65;;;;;;;5.12;100.00;101578.97;4987367;28;20041;-77
2021/12/21 05:26:10;;;;;;;32.55;12.27;;;;;;;5.05;100.00;101574.13;5018688;28;20041;-78
2021/12/21 05:28:38;;;;;;;40.72;15.30;;;;;;;5.01;100.00;101563.81;4991160;28;20034;-79
2021/12/21 05:31:04;;;;;;;41.03;14.88;;;;;;;5.02;100.00;101577.00;5010448;28;20036;-82
2021/12/21 05:33:29;;;;;;;33.72;15.55;;;;;;;4.96;100.00;101564.16;5025724;28;20322;-78
2021/12/21 05:35:56;;;;;;;41.65;15.63;;;;;;;5.03;100.00;101580.53;5002732;28;20105;-80
2021/12/21 05:38:30;;;;;;;37.38;14.45;;;;;;;4.95;100.00;101566.94;5002812;28;20044;-81
2021/12/21 05:40:58;;;;;;;;;;;;;;;4.99;100.00;101573.72;5007633;28;20475;-78
2021/12/21 05:43:23;;;;;;;35.38;12.35;;;;;;;4.81;100.00;101541.38;5009547;28;19925;-78
2021/12/21 05:45:49;;;;;;;41.05;15.15;;;;;;;4.99;100.00;101577.25;5021165;28;20037;-79
2021/12/21 05:48:15;;;;;;;31.92;12.32;;;;;;;4.98;100.00;101574.72;5024541;28;20076;-79
2021/12/21 05:50:43;;;;;;;38.90;13.93;;;;;;;5.03;100.00;101564.53;5008169;28;20487;-78
2021/12/21 05:53:11;;;;;;;37.35;13.63;;;;;;;5.02;100.00;101561.00;5023090;28;20025;-79
2021/12/21 05:55:37;;;;;;;42.70;15.55;;;;;;;4.97;100.00;101562.34;5022653;28;20036;-79
2021/12/21 05:58:06;;;;;;;37.10;14.32;;;;;;;4.94;100.00;101560.75;4993260;28;20506;-80
2021/12/21 06:00:34;;;;;;;40.25;14.15;;;;;;;5.04;100.00;101563.56;4996895;28;20291;-79
2021/12/21 06:03:00;;;;;;;40.22;13.43;;;;;;;5.03;100.00;101548.56;4994341;28;20049;-80
2021/12/21 06:05:27;;;;;;;39.08;12.48;;;;;;;5.03;100.00;101541.41;5025960;28;20037;-78
2021/12/21 06:07:54;;;;;;;43.30;14.18;;;;;;;5.08;100.00;101557.03;4992915;28;20041;-80
2021/12/21 06:10:29;;;;;;;36.90;13.85;;;;;;;5.03;100.00;101548.56;5008179;28;20487;-78
2021/12/21 06:26:16;;;;;;;41.72;13.82;;;;;;;5.31;100.00;101530.34;5019854;28;20029;-79
2021/12/21 06:28:44;;;;;;;32.53;11.98;;;;;;;5.29;100.00;101533.13;5006641;28;20034;-78
2021/12/21 06:31:10;;;;;;;38.05;13.77;;;;;;;5.20;100.00;101523.22;5020955;28;20095;-79
2021/12/21 06:33:35;;;;;;;34.45;12.15;;;;;;;5.28;100.00;101531.44;5007147;28;20538;-78
2021/12/21 06:36:03;;;;;;;19.45;8.90;;;;;;;5.35;100.00;101530.00;5010556;28;20127;-81
2021/12/21 06:38:28;;;;;;;32.90;11.77;;;;;;;5.14;100.00;101497.91;5055507;28;20036;-78
2021/12/21 06:40:54;;;;;;;35.45;12.00;;;;;;;5.36;100.00;101528.16;5002391;28;20025;-78
2021/12/21 06:43:20;;;;;;;33.88;12.52;;;;;;;5.34;100.00;101530.09;4986295;28;20138;-78
2021/12/21 06:45:56;;;;;;;30.23;13.10;;;;;;;5.30;100.00;101524.19;5020520;28;20026;-78
2021/12/21 06:53:35;;;;;;;27.30;8.52;;;;;;;5.34;100.00;101516.78;5034691;28;20025;-78
2021/12/21 06:56:04;;;;;;;26.08;9.48;;;;;;;5.49;100.00;101518.22;5016174;28;20025;-78
2021/12/21 06:58:30;;;;;;;32.83;12.55;;;;;;;5.49;100.00;101520.88;5007169;28;20144;-78
2021/12/21 07:00:56;;;;;;;35.65;12.35;;;;;;;5.51;100.00;101527.78;5019378;28;20104;-80
2021/12/21 07:03:22;;;;;;;25.38;10.90;;;;;;;5.51;100.00;101517.13;5019390;28;20034;-80
2021/12/21 07:05:49;;;;;;;24.35;10.10;;;;;;;5.34;100.00;101487.44;5006641;28;20032;-78
2021/12/21 07:08:18;;;;;;;28.15;11.70;;;;;;;5.46;100.00;101513.13;5023790;28;20140;-77
2021/12/21 07:11:01;;;;;;;27.55;9.60;;;;;;;5.40;100.00;101505.59;5022228;28;20029;-79
2021/12/21 07:18:56;;;;;;;26.83;10.50;;;;;;;5.50;100.00;101525.22;5006371;28;20056;-78
2021/12/21 07:21:21;;;;;;;26.33;12.27;;;;;;;5.45;100.00;101508.75;4995175;28;20029;-81
2021/12/21 07:23:49;;;;;;;20.35;9.38;;;;;;;5.49;100.00;101503.03;5008393;28;20092;-78
2021/12/21 07:26:16;;;;;;;31.77;11.88;;;;;;;5.46;100.00;101505.97;5007495;28;20033;-77
2021/12/21 07:28:41;;;;;;;26.08;10.43;;;;;;;5.45;100.00;101498.94;5003646;28;20040;-78
2021/12/21 07:31:07;;;;;;;30.85;11.38;;;;;;;5.44;100.00;101499.06;5006841;28;20623;-79
2021/12/21 07:33:34;;;;;;;30.60;10.30;;;;;;;5.37;100.00;101497.84;5022158;28;20067;-77
2021/12/21 07:35:59;;;;;;;33.90;12.23;;;;;;;5.35;100.00;101503.31;5003918;28;20061;-79
2021/12/21 07:38:30;;;;;;;24.88;9.73;;;;;;;5.34;100.00;101474.09;4995620;28;20540;-78
2021/12/21 07:41:00;;;;;;;29.40;11.43;;;;;;;5.44;100.00;101485.72;5020789;28;20033;-79
2021/12/21 07:43:25;;;;;;;28.17;10.77;;;;;;;5.45;100.00;101495.41;5005713;28;20030;-79
2021/12/21 07:45:51;;;;;;;33.78;11.15;;;;;;;5.36;100.00;101490.84;5009463;28;20675;-77
2021/12/21 07:48:17;;;;;;;25.83;10.15;;;;;;;5.48;100.00;101505.84;5007068;28;20045;-79
2021/12/21 07:50:46;;;;;;;19.05;9.07;;;;;;;5.54;100.00;101496.50;5026512;28;20046;-78
2021/12/21 07:53:13;;;;;;;29.55;10.93;;;;;;;5.61;100.00;101495.88;5020531;28;20479;-79
2021/12/21 07:55:39;;;;;;;34.65;11.18;;;;;;;5.51;100.00;101481.59;5006286;28;20440;-77
2021/12/21 07:58:05;;;;;;;30.17;11.75;;;;;;;5.43;100.00;101476.88;5020864;28;20053;-80
2021/12/21 08:00:30;;;;;;;27.65;9.68;;;;;;;5.55;100.00;101495.53;5027843;28;20128;-79
2021/12/21 08:02:59;;;;;;;32.33;12.50;;;;;;;5.50;100.00;101498.56;5003135;28;20037;-77
2021/12/21 08:05:30;;;;;;;31.50;11.43;;;;;;;5.51;100.00;101492.25;4993286;28;20100;-78
2021/12/21 08:08:05;;;;;;;29.98;10.18;;;;;;;5.55;100.00;101498.19;4993782;28;20060;-78
2021/12/21 08:10:42;;;;;;;30.23;10.88;;;;;;;5.56;100.00;101497.19;5025037;28;20132;-78
2021/12/21 08:13:08;;;;;;;27.33;9.98;;;;;;;5.48;100.00;101481.84;5021421;28;20039;-77
2021/12/21 08:15:33;;;;;;;27.65;9.45;;;;;;;5.50;100.00;101479.88;4995926;28;20140;-77
2021/12/21 08:17:59;;;;;;;24.83;8.75;;;;;;;5.54;100.00;101478.66;5002982;28;20045;-79
2021/12/21 08:20:27;;;;;;;30.05;8.43;;;;;;;5.69;100.00;101492.59;5003507;28;20045;-79
2021/12/21 08:22:54;;;;;;;26.65;8.65;;;;;;;5.75;100.00;101475.22;5028639;28;20025;-78
2021/12/21 08:25:24;;;;;;;19.15;7.45;;;;;;;5.75;100.00;101478.72;5022192;28;20160;-79
2021/12/21 08:27:57;;;;;;;31.02;11.05;;;;;;;5.76;100.00;101487.56;5021683;28;20041;-80
2021/12/21 08:30:24;;;;;;;25.80;9.85;;;;;;;5.79;100.00;101492.66;5008024;28;20470;-82
2021/12/21 08:32:49;;;;;;;33.45;11.55;;;;;;;5.77;100.00;101483.91;4996034;28;20087;-80
2021/12/21 08:35:15;;;;;;;24.90;10.80;;;;;;;5.75;100.00;101492.06;5010767;28;20034;-80
2021/12/21 08:37:48;;;;;;;26.48;9.40;;;;;;;5.65;100.00;101475.97;4995527;28;20132;-79
2021/12/21 08:40:14;;;;;;;27.08;9.43;;;;;;;5.70;100.00;101483.59;5014275;28;20065;-77
2021/12/21 08:42:41;;;;;;;30.13;10.77;;;;;;;5.73;100.00;101486.84;5002727;28;20369;-79
2021/12/21 08:45:07;;;;;;;30.70;9.80;;;;;;;5.71;100.00;101485.28;5022101;28;20083;-79
2021/12/21 08:47:37;;;;;;;37.55;10.52;;;;;;;5.63;100.00;101475.22;4996903;28;20084;-79
2021/12/21 08:50:04;;;;;;;27.70;10.73;;;;;;;5.69;100.00;101490.75;5020886;28;20489;-80
2021/12/21 08:52:31;;;;;;;34.00;12.00;;;;;;;5.54;100.00;101459.16;4994354;28;20037;-79
2021/12/21 08:54:57;;;;;;;24.85;9.98;;;;;;;5.65;100.00;101475.13;4994784;28;20475;-79
2021/12/21 08:57:22;;;;;;;26.95;9.48;;;;;;;5.66;100.00;101476.81;4989784;28;20346;-79
2021/12/21 08:59:49;;;;;;;24.20;9.68;;;;;;;5.67;100.00;101476.69;5005382;28;20109;-80
2021/12/21 09:02:14;;;;;;;27.95;8.32;;;;;;;5.63;100.00;101469.91;5024363;28;20037;-81
2021/12/21 09:04:40;;;;;;;29.30;11.43;;;;;;;5.64;100.00;101484.09;5010775;28;20501;-78
2021/12/21 09:07:06;;;;;;;23.80;9.38;;;;;;;5.63;100.00;101477.91;4993915;28;20059;-78
2021/12/21 09:09:32;;;;;;;23.02;10.10;;;;;;;5.62;100.00;101486.88;4990280;28;20052;-78
2021/12/21 09:11:57;;;;;;;21.45;8.90;;;;;;;5.46;100.00;101459.78;4990477;28;20100;-78
2021/12/21 09:14:23;;;;;;;21.58;7.38;;;;;;;5.69;100.00;101485.44;4993026;28;20033;-79
2021/12/21 09:16:50;;;;;;;21.13;8.73;;;;;;;5.89;100.00;101494.44;5011120;28;20399;-79
2021/12/21 09:19:16;;;;;;;20.42;7.95;;;;;;;5.92;100.00;101498.66;5032397;28;20463;-80
2021/12/21 09:21:43;;;;;;;19.17;7.15;;;;;;;6.00;100.00;101506.06;4992736;28;20099;-79
2021/12/21 09:24:09;;;;;;;20.35;8.05;;;;;;;6.13;100.00;101498.75;5009292;28;20034;-79
2021/12/21 09:26:36;;;;;;;12.93;5.88;;;;;;;6.30;99.06;101492.84;4995826;28;20030;-79
2021/12/21 09:29:02;;;;;;;23.40;7.35;;;;;;;6.41;98.05;101499.94;5010576;28;20037;-79
2021/12/21 09:31:28;;;;;;;17.42;6.60;;;;;;;6.47;97.37;101502.06;5011459;28;20364;-79
2021/12/21 09:33:54;;;;;;;16.48;6.68;;;;;;;6.56;97.39;101509.31;4996981;28;20049;-79
2021/12/21 09:36:20;;;;;;;15.95;6.60;;;;;;;6.39;96.45;101465.31;4996174;28;20056;-80
2021/12/21 09:38:46;;;;;;;15.70;6.40;;;;;;;6.63;96.19;101492.75;5001525;28;20030;-79
2021/12/21 09:41:12;;;;;;;17.27;6.72;;;;;;;6.70;95.39;101493.91;5028926;28;20108;-81
2021/12/21 09:43:40;;;;;;;22.13;6.10;;;;;;;6.75;94.72;101484.53;5027814;28;20586;-78
2021/12/21 09:46:07;;;;;;;11.98;6.05;;;;;;;6.70;94.72;101481.41;5013052;28;20044;-80
2021/12/21 09:48:33;;;;;;;16.27;5.90;;;;;;;6.74;93.81;101490.00;5024144;28;20056;-81
2021/12/21 09:50:59;;;;;;;10.50;5.40;;;;;;;6.85;93.72;101503.25;5009628;28;20087;-79
2021/12/21 09:53:26;;;;;;;21.70;7.80;;;;;;;6.71;93.17;101476.91;5021894;28;20045;-79
2021/12/21 09:55:52;;;;;;;18.02;5.63;;;;;;;6.81;92.64;101488.47;5011083;28;20065;-79
2021/12/21 09:58:18;;;;;;;16.33;5.25;;;;;;;6.85;92.37;101491.72;4997041;28;20463;-80
2021/12/21 10:00:44;;;;;;;16.05;5.53;;;;;;;6.91;92.64;101504.56;5015775;28;20399;-80
2021/12/21 10:03:10;;;;;;;24.33;7.38;;;;;;;6.88;92.76;101486.97;4989030;28;20434;-80
2021/12/21 10:05:40;;;;;;;12.27;5.93;;;;;;;6.91;92.39;101484.03;5022105;28;20414;-79
2021/12/21 10:08:09;;;;;;;21.20;7.45;;;;;;;6.92;92.38;101483.03;5024232;28;20129;-77
2021/12/21 10:10:38;;;;;;;11.02;5.72;;;;;;;7.01;91.50;101476.91;5009677;28;20034;-77
2021/12/21 10:13:19;;;;;;;24.23;8.50;;;;;;;6.93;91.62;101470.50;5028978;28;20037;-78
2021/12/21 10:15:47;;;;;;;15.23;6.82;;;;;;;6.81;92.28;101462.59;5008151;28;20475;-78
2021/12/21 10:18:20;;;;;;;17.67;8.15;;;;;;;6.90;92.28;101476.13;5010266;28;20025;-79
2021/12/21 10:20:49;;;;;;;18.73;7.10;;;;;;;6.89;92.36;101480.63;5023622;28;20040;-78
2021/12/21 10:23:28;;;;;;;22.13;8.02;;;;;;;6.88;92.25;101476.28;5028427;28;20041;-79
2021/12/21 10:26:06;;;;;;;23.65;8.35;;;;;;;6.81;92.29;101459.09;5021455;28;20032;-79
2021/12/21 10:28:31;;;;;;;30.08;9.15;;;;;;;6.88;92.53;101478.97;5034807;28;20467;-79
2021/12/21 10:30:59;;;;;;;26.83;10.55;;;;;;;6.84;92.81;101472.16;5007758;28;20037;-78
2021/12/21 10:33:26;;;;;;;28.08;9.38;;;;;;;6.89;92.83;101477.13;5006628;28;20044;-81
2021/12/21 10:35:54;;;;;;;17.55;7.45;;;;;;;6.89;92.48;101459.25;5026696;28;20634;-78
2021/12/21 10:38:53;;;;;;;27.88;9.43;;;;;;;7.00;92.49;101464.50;5025790;28;20058;-79
2021/12/21 10:41:21;;;;;;;24.92;8.40;;;;;;;7.05;92.31;101464.09;5027186;28;20037;-79
2021/12/21 10:44:00;;;;;;;17.40;7.80;;;;;;;7.19;91.45;101478.91;5007741;28;20044;-79
2021/12/21 10:46:30;;;;;;;21.35;8.77;;;;;;;7.29;91.64;101473.59;5030217;28;20060;-79
2021/12/21 10:49:09;;;;;;;20.95;8.73;;;;;;;7.39;90.91;101472.63;5029562;28;20408;-77
2021/12/21 10:51:53;;;;;;;21.10;8.35;;;;;;;7.51;90.84;101467.16;5007671;28;20053;-81
2021/12/21 10:54:39;;;;;;;27.85;8.07;;;;;;;7.54;89.52;101446.34;5013613;28;20048;-81
2021/12/21 10:57:16;;;;;;;21.60;8.05;;;;;;;7.68;89.32;101437.03;5030517;28;20041;-82
2021/12/21 10:59:46;;;;;;;25.10;10.43;;;;;;;7.97;88.45;101471.84;5014438;28;20037;-81
2021/12/21 11:02:25;;;;;;;22.60;9.63;;;;;;;8.01;88.81;101464.38;5012381;28;20031;-83
2021/12/21 11:04:56;;;;;;;24.73;10.70;;;;;;;8.00;88.47;101462.69;5010138;28;20881;-82
2021/12/21 11:10:25;;;;;;;29.70;11.60;;;;;;;7.86;88.20;101458.63;5026098;28;20038;-82
2021/12/21 11:12:55;;;;;;;30.63;10.18;;;;;;;7.71;89.51;101452.81;5028875;28;20041;-82
2021/12/21 11:15:29;;;;;;;28.85;9.80;;;;;;;7.56;90.27;101443.50;5013833;28;20049;-81
2021/12/21 11:17:57;;;;;;;25.73;11.88;;;;;;;7.60;90.43;101452.97;4997543;28;20029;-81
2021/12/21 11:20:23;;;;;;;25.70;9.63;;;;;;;7.73;89.62;101445.50;5030344;28;20043;-81
2021/12/21 11:22:51;;;;;;;24.05;9.57;;;;;;;7.82;89.15;101446.47;5026958;28;20026;-82
2021/12/21 11:25:16;;;;;;;29.20;10.45;;;;;;;7.46;89.84;101406.03;5012270;28;20041;-81
2021/12/21 11:27:43;;;;;;;30.85;11.82;;;;;;;7.27;90.43;101388.97;5026675;28;20029;-81
2021/12/21 11:30:13;;;;;;;31.58;11.60;;;;;;;7.55;90.46;101439.16;5013929;28;20049;-81
2021/12/21 11:32:44;;;;;;;30.83;11.38;;;;;;;7.29;90.71;101402.22;5002464;28;20102;-81
2021/12/21 11:37:43;;;;;;;27.85;12.07;;;;;;;7.31;92.83;101440.38;5013509;28;20048;-81
2021/12/21 11:40:12;;;;;;;22.35;8.50;;;;;;;7.34;92.92;101431.22;5029256;28;20048;-82
2021/12/21 11:42:50;;;;;;;24.90;9.13;;;;;;;7.36;93.24;101437.31;4995387;28;20124;-81
2021/12/21 11:45:23;;;;;;;9.88;4.93;;;;;;;7.12;92.85;101402.88;5025727;28;20508;-82
2021/12/21 11:48:07;;;;;;;23.73;9.53;;;;;;;7.27;93.05;101406.84;4997468;28;20460;-81
2021/12/21 11:50:33;;;;;;;29.33;10.82;;;;;;;7.45;92.40;101426.59;5038067;28;20676;-82
2021/12/21 11:53:06;;;;;;;25.88;10.18;;;;;;;7.60;91.10;101431.56;5012005;28;20120;-81
2021/12/21 11:55:35;;;;;;;30.52;11.07;;;;;;;7.57;91.18;101445.19;5013204;28;20052;-81
2021/12/21 11:58:20;;;;;;;17.67;8.50;;;;;;;7.61;91.61;101425.19;5011052;28;20041;-79
2021/12/21 12:00:49;;;;;;;27.48;10.50;;;;;;;7.83;90.29;101424.94;5023167;28;20033;-79
2021/12/21 12:03:20;;;;;;;20.40;7.10;;;;;;;7.96;89.20;101408.56;4995380;28;20452;-78
2021/12/21 12:05:53;;;;;;;16.88;8.60;;;;;;;8.30;87.88;101419.63;5005652;28;20061;-79
2021/12/21 12:08:20;;;;;;;33.10;14.73;;;;;;;8.37;87.78;101418.06;5009466;28;20037;-79
2021/12/21 12:10:58;;;;;;;19.25;6.95;;;;;;;8.44;87.08;101402.31;5006908;28;20476;-79
2021/12/21 12:13:43;;;;;;;20.92;11.13;;;;;;;8.54;86.26;101402.25;5021931;28;20490;-79
2021/12/21 12:16:12;;;;;;;29.45;12.00;;;;;;;8.64;85.90;101395.00;5023196;28;20037;-79
2021/12/21 12:18:50;;;;;;;30.50;12.95;;;;;;;8.72;84.37;101388.91;4999190;28;20056;-78
2021/12/21 12:21:22;;;;;;;23.95;11.85;;;;;;;8.67;84.39;101365.22;4995215;28;20033;-79
2021/12/21 12:23:53;;;;;;;25.95;9.48;;;;;;;8.73;84.68;101372.69;5009261;28;20499;-79
2021/12/21 12:26:29;;;;;;;20.63;8.70;;;;;;;8.75;83.97;101368.00;5004342;28;20033;-79
2021/12/21 12:29:11;;;;;;;21.65;8.65;;;;;;;8.80;83.75;101375.59;5021870;28;20490;-80